sensor_id;sensor_type;location;lat;lon;timestamp;pressure;altitude;pressure_sealevel;temperature;humidity
75424;BME280;64005;55.160;36.002;2023-02-22T00:01:32;97927.97;;;-16.44;75.29
75424;BME280;64005;55.160;36.002;2023-02-22T00:04:03;97940.84;;;-16.48;75.25
75424;BME280;64005;55.160;36.002;2023-02-22T00:06:32;97938.75;;;-16.53;74.27
75424;BME280;64005;55.160;36.002;2023-02-22T00:09:00;97950.16;;;-16.59;75.18
75424;BME280;64005;55.160;36.002;2023-02-22T00:11:28;97952.63;;;-16.57;74.47
75424;BME280;64005;55.160;36.002;2023-02-22T00:13:56;97950.16;;;-16.59;75.45
75424;BME280;64005;55.160;36.002;2023-02-22T00:16:24;97955.28;;;-16.64;74.76
75424;BME280;64005;55.160;36.002;2023-02-22T00:18:52;97959.38;;;-16.61;74.47
75424;BME280;64005;55.160;36.002;2023-02-22T00:21:20;97960.78;;;-16.65;73.86
75424;BME280;64005;55.160;36.002;2023-02-22T00:23:49;97961.78;;;-16.66;74.05
75424;BME280;64005;55.160;36.002;2023-02-22T00:26:20;97971.59;;;-16.67;75.25
75424;BME280;64005;55.160;36.002;2023-02-22T00:28:50;97936.38;;;-16.90;74.44
75424;BME280;64005;55.160;36.002;2023-02-22T00:31:18;97981.41;;;-16.67;75.53
75424;BME280;64005;55.160;36.002;2023-02-22T00:33:46;97990.63;;;-16.70;74.80
75424;BME280;64005;55.160;36.002;2023-02-22T00:36:14;97998.94;;;-16.73;75.19
75424;BME280;64005;55.160;36.002;2023-02-22T00:38:41;98013.25;;;-16.74;75.41
75424;BME280;64005;55.160;36.002;2023-02-22T00:41:10;97996.41;;;-16.81;74.17
75424;BME280;64005;55.160;36.002;2023-02-22T00:43:38;98018.59;;;-16.74;74.10
75424;BME280;64005;55.160;36.002;2023-02-22T00:46:06;98022.25;;;-16.75;74.12
75424;BME280;64005;55.160;36.002;2023-02-22T00:48:33;98016.31;;;-16.77;75.16
75424;BME280;64005;55.160;36.002;2023-02-22T00:51:01;98019.16;;;-16.78;73.96
75424;BME280;64005;55.160;36.002;2023-02-22T00:53:28;98023.81;;;-16.80;74.21
75424;BME280;64005;55.160;36.002;2023-02-22T00:55:56;98030.63;;;-16.78;74.30
75424;BME280;64005;55.160;36.002;2023-02-22T00:58:25;98027.13;;;-16.78;75.24
75424;BME280;64005;55.160;36.002;2023-02-22T01:00:53;98031.81;;;-16.80;75.16
75424;BME280;64005;55.160;36.002;2023-02-22T01:03:21;98030.53;;;-16.84;75.17
75424;BME280;64005;55.160;36.002;2023-02-22T01:05:48;98031.56;;;-16.85;74.22
75424;BME280;64005;55.160;36.002;2023-02-22T01:08:16;98039.91;;;-16.88;75.27
75424;BME280;64005;55.160;36.002;2023-02-22T01:10:44;98040.09;;;-16.90;74.22
75424;BME280;64005;55.160;36.002;2023-02-22T01:13:12;98040.63;;;-16.95;75.01
75424;BME280;64005;55.160;36.002;2023-02-22T01:15:42;98043.28;;;-16.95;74.97
75424;BME280;64005;55.160;36.002;2023-02-22T01:18:10;98053.13;;;-16.95;74.30
75424;BME280;64005;55.160;36.002;2023-02-22T01:20:42;98046.91;;;-17.02;75.09
75424;BME280;64005;55.160;36.002;2023-02-22T01:23:13;98046.69;;;-17.01;74.41
75424;BME280;64005;55.160;36.002;2023-02-22T01:25:42;98053.06;;;-17.02;75.02
75424;BME280;64005;55.160;36.002;2023-02-22T01:28:09;98057.53;;;-17.02;75.00
75424;BME280;64005;55.160;36.002;2023-02-22T01:30:38;98055.25;;;-17.05;74.17
75424;BME280;64005;55.160;36.002;2023-02-22T01:33:07;98060.75;;;-17.07;74.45
75424;BME280;64005;55.160;36.002;2023-02-22T01:35:38;98063.78;;;-17.10;73.85
75424;BME280;64005;55.160;36.002;2023-02-22T01:38:07;98064.97;;;-17.12;74.13
75424;BME280;64005;55.160;36.002;2023-02-22T01:40:37;98073.13;;;-17.14;74.17
75424;BME280;64005;55.160;36.002;2023-02-22T01:43:15;98086.13;;;-17.19;74.85
75424;BME280;64005;55.160;36.002;2023-02-22T01:45:52;98087.97;;;-17.19;75.24
75424;BME280;64005;55.160;36.002;2023-02-22T01:48:34;98087.13;;;-17.20;73.82
75424;BME280;64005;55.160;36.002;2023-02-22T01:51:07;98053.63;;;-17.50;74.85
75424;BME280;64005;55.160;36.002;2023-02-22T01:53:40;98097.31;;;-17.23;73.65
75424;BME280;64005;55.160;36.002;2023-02-22T01:56:11;98094.84;;;-17.25;75.16
75424;BME280;64005;55.160;36.002;2023-02-22T01:58:42;98095.19;;;-17.28;74.07
75424;BME280;64005;55.160;36.002;2023-02-22T02:01:10;98097.06;;;-17.28;73.75
75424;BME280;64005;55.160;36.002;2023-02-22T02:03:40;98096.59;;;-17.32;74.22
75424;BME280;64005;55.160;36.002;2023-02-22T02:06:11;98097.84;;;-17.28;75.25
75424;BME280;64005;55.160;36.002;2023-02-22T02:08:45;98105.38;;;-17.31;74.82
75424;BME280;64005;55.160;36.002;2023-02-22T02:11:20;98095.50;;;-17.38;73.83
75424;BME280;64005;55.160;36.002;2023-02-22T02:13:49;98104.56;;;-17.32;73.79
75424;BME280;64005;55.160;36.002;2023-02-22T02:16:20;98109.22;;;-17.34;75.10
75424;BME280;64005;55.160;36.002;2023-02-22T02:18:49;98104.56;;;-17.32;73.76
75424;BME280;64005;55.160;36.002;2023-02-22T02:21:37;98105.56;;;-17.33;73.83
75424;BME280;64005;55.160;36.002;2023-02-22T02:27:17;98117.41;;;-17.36;73.93
75424;BME280;64005;55.160;36.002;2023-02-22T02:33:05;98123.72;;;-17.37;75.13
75424;BME280;64005;55.160;36.002;2023-02-22T02:35:45;98131.50;;;-17.35;75.08
75424;BME280;64005;55.160;36.002;2023-02-22T02:38:21;98129.09;;;-17.45;74.35
75424;BME280;64005;55.160;36.002;2023-02-22T02:40:56;98127.34;;;-17.52;74.00
75424;BME280;64005;55.160;36.002;2023-02-22T02:43:30;98151.84;;;-17.42;75.26
75424;BME280;64005;55.160;36.002;2023-02-22T02:46:04;98134.75;;;-17.48;73.94
75424;BME280;64005;55.160;36.002;2023-02-22T02:48:34;98153.00;;;-17.45;73.69
75424;BME280;64005;55.160;36.002;2023-02-22T02:51:08;98117.09;;;-17.70;74.97
75424;BME280;64005;55.160;36.002;2023-02-22T02:53:42;98155.66;;;-17.45;74.11
75424;BME280;64005;55.160;36.002;2023-02-22T02:56:10;98149.91;;;-17.48;75.20
75424;BME280;64005;55.160;36.002;2023-02-22T02:58:47;98166.19;;;-17.51;74.99
75424;BME280;64005;55.160;36.002;2023-02-22T03:01:24;98163.53;;;-17.51;75.11
75424;BME280;64005;55.160;36.002;2023-02-22T03:04:07;98076.25;;;-18.06;74.65
75424;BME280;64005;55.160;36.002;2023-02-22T03:07:02;98158.78;;;-17.56;74.79
75424;BME280;64005;55.160;36.002;2023-02-22T03:09:40;98158.28;;;-17.59;74.52
75424;BME280;64005;55.160;36.002;2023-02-22T03:12:20;98161.53;;;-17.64;73.99
75424;BME280;64005;55.160;36.002;2023-02-22T03:14:57;98161.69;;;-17.65;73.45
75424;BME280;64005;55.160;36.002;2023-02-22T03:17:37;98143.06;;;-17.80;73.83
75424;BME280;64005;55.160;36.002;2023-02-22T03:20:13;98170.22;;;-17.70;73.75
75424;BME280;64005;55.160;36.002;2023-02-22T03:22:46;98149.03;;;-17.78;73.41
75424;BME280;64005;55.160;36.002;2023-02-22T03:25:21;98131.25;;;-18.00;73.46
75424;BME280;64005;55.160;36.002;2023-02-22T03:27:52;98177.88;;;-17.75;74.54
75424;BME280;64005;55.160;36.002;2023-02-22T03:30:24;98183.53;;;-17.78;74.73
75424;BME280;64005;55.160;36.002;2023-02-22T03:33:02;98192.50;;;-17.79;73.69
75424;BME280;64005;55.160;36.002;2023-02-22T03:35:38;98195.00;;;-17.78;74.20
75424;BME280;64005;55.160;36.002;2023-02-22T03:38:10;98172.69;;;-17.91;74.58
75424;BME280;64005;55.160;36.002;2023-02-22T03:40:42;98204.31;;;-17.82;73.79
75424;BME280;64005;55.160;36.002;2023-02-22T03:43:14;98203.50;;;-17.82;73.90
75424;BME280;64005;55.160;36.002;2023-02-22T03:45:44;98205.50;;;-17.84;74.53
75424;BME280;64005;55.160;36.002;2023-02-22T03:48:18;98206.84;;;-17.88;74.17
75424;BME280;64005;55.160;36.002;2023-02-22T03:50:49;98198.00;;;-18.03;73.54
75424;BME280;64005;55.160;36.002;2023-02-22T03:53:18;98210.50;;;-17.89;73.49
75424;BME280;64005;55.160;36.002;2023-02-22T03:55:49;98187.78;;;-18.14;74.29
75424;BME280;64005;55.160;36.002;2023-02-22T03:58:20;98205.38;;;-17.91;73.70
75424;BME280;64005;55.160;36.002;2023-02-22T04:00:48;98212.50;;;-17.91;74.17
75424;BME280;64005;55.160;36.002;2023-02-22T04:03:18;98214.16;;;-17.90;73.28
75424;BME280;64005;55.160;36.002;2023-02-22T04:05:45;98218.66;;;-17.91;74.22
75424;BME280;64005;55.160;36.002;2023-02-22T04:08:15;98208.19;;;-17.92;73.93
75424;BME280;64005;55.160;36.002;2023-02-22T04:10:43;98210.69;;;-17.91;74.54
75424;BME280;64005;55.160;36.002;2023-02-22T04:13:10;98218.66;;;-17.91;73.21
75424;BME280;64005;55.160;36.002;2023-02-22T04:15:39;98224.50;;;-17.95;73.63
75424;BME280;64005;55.160;36.002;2023-02-22T04:18:07;98224.66;;;-17.97;73.09
75424;BME280;64005;55.160;36.002;2023-02-22T04:20:34;98232.13;;;-18.00;73.53
75424;BME280;64005;55.160;36.002;2023-02-22T04:23:01;98241.91;;;-18.01;73.61
75424;BME280;64005;55.160;36.002;2023-02-22T04:25:30;98239.25;;;-18.01;74.56
75424;BME280;64005;55.160;36.002;2023-02-22T04:27:58;98250.72;;;-18.00;73.76
75424;BME280;64005;55.160;36.002;2023-02-22T04:30:25;98252.53;;;-18.01;74.11
75424;BME280;64005;55.160;36.002;2023-02-22T04:32:54;98254.41;;;-18.01;73.46
75424;BME280;64005;55.160;36.002;2023-02-22T04:35:22;98250.91;;;-18.02;74.47
75424;BME280;64005;55.160;36.002;2023-02-22T04:37:50;98261.53;;;-18.02;74.11
75424;BME280;64005;55.160;36.002;2023-02-22T04:40:17;98258.69;;;-18.00;73.95
75424;BME280;64005;55.160;36.002;2023-02-22T04:42:46;98262.34;;;-18.01;73.14
75424;BME280;64005;55.160;36.002;2023-02-22T04:45:14;98269.50;;;-18.02;73.48
75424;BME280;64005;55.160;36.002;2023-02-22T04:47:42;98275.44;;;-18.00;73.20
75424;BME280;64005;55.160;36.002;2023-02-22T04:50:11;98273.16;;;-18.03;73.83
75424;BME280;64005;55.160;36.002;2023-02-22T04:52:39;98273.78;;;-18.01;74.05
75424;BME280;64005;55.160;36.002;2023-02-22T04:55:07;98274.66;;;-18.08;74.01
75424;BME280;64005;55.160;36.002;2023-02-22T04:57:34;98282.41;;;-17.99;74.36
75424;BME280;64005;55.160;36.002;2023-02-22T05:00:05;98294.69;;;-17.98;72.93
75424;BME280;64005;55.160;36.002;2023-02-22T05:02:35;98302.47;;;-17.96;74.08
75424;BME280;64005;55.160;36.002;2023-02-22T05:05:04;98303.47;;;-17.97;74.05
75424;BME280;64005;55.160;36.002;2023-02-22T05:07:32;98302.13;;;-17.93;72.95
75424;BME280;64005;55.160;36.002;2023-02-22T05:09:59;98313.56;;;-17.93;72.89
75424;BME280;64005;55.160;36.002;2023-02-22T05:12:29;98319.53;;;-17.91;73.23
75424;BME280;64005;55.160;36.002;2023-02-22T05:14:57;98312.03;;;-17.87;73.71
75424;BME280;64005;55.160;36.002;2023-02-22T05:17:25;98319.00;;;-17.86;73.76
75424;BME280;64005;55.160;36.002;2023-02-22T05:19:53;98322.47;;;-17.78;74.05
75424;BME280;64005;55.160;36.002;2023-02-22T05:22:20;98323.13;;;-17.76;72.93
75424;BME280;64005;55.160;36.002;2023-02-22T05:24:48;98324.56;;;-17.73;73.77
75424;BME280;64005;55.160;36.002;2023-02-22T05:27:17;98330.84;;;-17.66;73.09
75424;BME280;64005;55.160;36.002;2023-02-22T05:29:45;98338.31;;;-17.61;72.41
75424;BME280;64005;55.160;36.002;2023-02-22T05:32:12;98339.41;;;-17.56;72.48
75424;BME280;64005;55.160;36.002;2023-02-22T05:34:41;98342.53;;;-17.52;73.87
75424;BME280;64005;55.160;36.002;2023-02-22T05:37:09;98339.16;;;-17.46;73.49
75424;BME280;64005;55.160;36.002;2023-02-22T05:39:36;98348.47;;;-17.42;73.32
75424;BME280;64005;55.160;36.002;2023-02-22T05:42:04;98341.63;;;-17.37;72.48
75424;BME280;64005;55.160;36.002;2023-02-22T05:44:31;98342.06;;;-17.33;73.65
75424;BME280;64005;55.160;36.002;2023-02-22T05:46:58;98349.53;;;-17.28;73.08
75424;BME280;64005;55.160;36.002;2023-02-22T05:49:26;98352.31;;;-17.22;72.94
75424;BME280;64005;55.160;36.002;2023-02-22T05:51:55;98350.28;;;-17.20;72.94
75424;BME280;64005;55.160;36.002;2023-02-22T05:54:24;98350.56;;;-17.15;72.98
75424;BME280;64005;55.160;36.002;2023-02-22T05:56:52;98357.22;;;-17.11;72.11
75424;BME280;64005;55.160;36.002;2023-02-22T05:59:19;98349.34;;;-17.04;72.08
75424;BME280;64005;55.160;36.002;2023-02-22T06:01:47;98349.81;;;-17.01;72.30
75424;BME280;64005;55.160;36.002;2023-02-22T06:04:14;98359.72;;;-16.95;72.99
75424;BME280;64005;55.160;36.002;2023-02-22T06:06:42;98360.03;;;-16.89;73.02
75424;BME280;64005;55.160;36.002;2023-02-22T06:09:12;98365.00;;;-16.86;72.04
75424;BME280;64005;55.160;36.002;2023-02-22T06:11:39;98356.50;;;-16.82;71.97
75424;BME280;64005;55.160;36.002;2023-02-22T06:14:07;98365.00;;;-16.86;72.82
75424;BME280;64005;55.160;36.002;2023-02-22T06:16:34;98362.09;;;-16.77;72.14
75424;BME280;64005;55.160;36.002;2023-02-22T06:19:02;98366.88;;;-16.72;72.49
75424;BME280;64005;55.160;36.002;2023-02-22T06:21:30;98367.25;;;-16.61;72.60
75424;BME280;64005;55.160;36.002;2023-02-22T06:23:57;98375.97;;;-16.52;72.19
75424;BME280;64005;55.160;36.002;2023-02-22T06:26:26;98363.78;;;-16.46;71.72
75424;BME280;64005;55.160;36.002;2023-02-22T06:28:54;98373.34;;;-16.37;71.57
75424;BME280;64005;55.160;36.002;2023-02-22T06:31:21;98379.88;;;-16.25;71.57
75424;BME280;64005;55.160;36.002;2023-02-22T06:33:49;98377.97;;;-16.17;71.65
75424;BME280;64005;55.160;36.002;2023-02-22T06:36:16;98389.53;;;-16.09;72.32
75424;BME280;64005;55.160;36.002;2023-02-22T06:38:43;98391.28;;;-16.02;71.17
75424;BME280;64005;55.160;36.002;2023-02-22T06:41:11;98397.72;;;-15.96;71.12
75424;BME280;64005;55.160;36.002;2023-02-22T06:43:41;98393.94;;;-15.87;71.24
75424;BME280;64005;55.160;36.002;2023-02-22T06:46:09;98401.84;;;-15.79;71.27
75424;BME280;64005;55.160;36.002;2023-02-22T06:48:37;98404.44;;;-15.71;71.67
75424;BME280;64005;55.160;36.002;2023-02-22T06:51:06;98398.00;;;-15.77;71.62
75424;BME280;64005;55.160;36.002;2023-02-22T06:53:34;98401.66;;;-15.63;71.15
75424;BME280;64005;55.160;36.002;2023-02-22T06:56:02;98406.78;;;-15.61;71.44
75424;BME280;64005;55.160;36.002;2023-02-22T06:58:29;98414.47;;;-15.52;71.33
75424;BME280;64005;55.160;36.002;2023-02-22T07:00:58;98416.88;;;-15.42;70.83
75424;BME280;64005;55.160;36.002;2023-02-22T07:03:28;98424.75;;;-15.34;71.33
75424;BME280;64005;55.160;36.002;2023-02-22T07:05:55;98426.41;;;-15.33;71.07
75424;BME280;64005;55.160;36.002;2023-02-22T07:08:23;98435.78;;;-15.22;70.80
75424;BME280;64005;55.160;36.002;2023-02-22T07:10:51;98426.81;;;-15.15;70.66
75424;BME280;64005;55.160;36.002;2023-02-22T07:13:18;98429.28;;;-14.99;71.02
75424;BME280;64005;55.160;36.002;2023-02-22T07:15:46;98438.00;;;-14.90;70.52
75424;BME280;64005;55.160;36.002;2023-02-22T07:18:15;98436.66;;;-14.79;70.13
75424;BME280;64005;55.160;36.002;2023-02-22T07:20:42;98435.72;;;-14.72;69.99
75424;BME280;64005;55.160;36.002;2023-02-22T07:23:13;98429.63;;;-14.66;70.47
75424;BME280;64005;55.160;36.002;2023-02-22T07:25:41;98436.56;;;-14.50;70.35
75424;BME280;64005;55.160;36.002;2023-02-22T07:28:08;98435.97;;;-14.45;70.04
75424;BME280;64005;55.160;36.002;2023-02-22T07:30:36;98437.88;;;-14.39;69.70
75424;BME280;64005;55.160;36.002;2023-02-22T07:33:05;98383.81;;;-14.69;69.96
75424;BME280;64005;55.160;36.002;2023-02-22T07:35:37;98456.66;;;-14.26;69.79
75424;BME280;64005;55.160;36.002;2023-02-22T07:38:06;98451.84;;;-14.16;69.74
75424;BME280;64005;55.160;36.002;2023-02-22T07:40:34;98450.03;;;-14.09;69.53
75424;BME280;64005;55.160;36.002;2023-02-22T07:43:04;98374.88;;;-14.55;69.56
75424;BME280;64005;55.160;36.002;2023-02-22T07:45:33;98451.94;;;-14.03;69.08
75424;BME280;64005;55.160;36.002;2023-02-22T07:48:02;98439.78;;;-14.05;69.23
75424;BME280;64005;55.160;36.002;2023-02-22T07:50:31;98480.13;;;-13.73;68.79
75424;BME280;64005;55.160;36.002;2023-02-22T07:53:02;98475.00;;;-13.68;68.52
75424;BME280;64005;55.160;36.002;2023-02-22T07:55:31;98463.06;;;-13.72;68.30
75424;BME280;64005;55.160;36.002;2023-02-22T07:58:01;98467.13;;;-13.48;68.32
75424;BME280;64005;55.160;36.002;2023-02-22T08:00:31;98470.47;;;-13.39;68.17
75424;BME280;64005;55.160;36.002;2023-02-22T08:03:00;98470.97;;;-13.22;68.32
75424;BME280;64005;55.160;36.002;2023-02-22T08:05:30;98467.28;;;-13.15;67.77
75424;BME280;64005;55.160;36.002;2023-02-22T08:07:58;98474.75;;;-13.04;67.46
75424;BME280;64005;55.160;36.002;2023-02-22T08:10:28;98487.72;;;-13.01;67.44
75424;BME280;64005;55.160;36.002;2023-02-22T08:12:57;98469.41;;;-13.04;67.49
75424;BME280;64005;55.160;36.002;2023-02-22T08:15:26;98459.75;;;-12.92;67.30
75424;BME280;64005;55.160;36.002;2023-02-22T08:17:54;98474.84;;;-12.77;67.13
75424;BME280;64005;55.160;36.002;2023-02-22T08:20:23;98450.72;;;-12.91;67.27
75424;BME280;64005;55.160;36.002;2023-02-22T08:22:52;98487.25;;;-12.63;66.45
75424;BME280;64005;55.160;36.002;2023-02-22T08:25:22;98482.13;;;-12.52;66.33
75424;BME280;64005;55.160;36.002;2023-02-22T08:27:56;98498.25;;;-12.38;66.10
75424;BME280;64005;55.160;36.002;2023-02-22T08:30:27;98491.03;;;-12.38;66.25
75424;BME280;64005;55.160;36.002;2023-02-22T08:32:55;98490.63;;;-12.22;65.66
75424;BME280;64005;55.160;36.002;2023-02-22T08:35:24;98503.66;;;-12.05;65.61
75424;BME280;64005;55.160;36.002;2023-02-22T08:37:54;98512.53;;;-11.98;65.76
75424;BME280;64005;55.160;36.002;2023-02-22T08:40:23;98509.22;;;-12.00;65.38
75424;BME280;64005;55.160;36.002;2023-02-22T08:42:54;98506.34;;;-11.92;64.54
75424;BME280;64005;55.160;36.002;2023-02-22T08:45:22;98518.09;;;-11.93;64.52
75424;BME280;64005;55.160;36.002;2023-02-22T08:47:50;98515.81;;;-11.96;64.07
75424;BME280;64005;55.160;36.002;2023-02-22T08:50:21;98489.63;;;-12.08;64.48
75424;BME280;64005;55.160;36.002;2023-02-22T08:52:49;98525.34;;;-11.74;64.51
75424;BME280;64005;55.160;36.002;2023-02-22T08:55:19;98519.31;;;-11.56;63.74
75424;BME280;64005;55.160;36.002;2023-02-22T08:57:47;98516.41;;;-11.35;63.97
75424;BME280;64005;55.160;36.002;2023-02-22T09:00:18;98520.09;;;-11.23;63.83
75424;BME280;64005;55.160;36.002;2023-02-22T09:02:46;98530.47;;;-11.33;62.99
75424;BME280;64005;55.160;36.002;2023-02-22T09:05:13;98542.84;;;-11.39;62.94
75424;BME280;64005;55.160;36.002;2023-02-22T09:07:43;98506.13;;;-11.45;62.99
75424;BME280;64005;55.160;36.002;2023-02-22T09:10:12;98530.66;;;-11.41;62.43
75424;BME280;64005;55.160;36.002;2023-02-22T09:12:41;98548.22;;;-11.45;63.02
75424;BME280;64005;55.160;36.002;2023-02-22T09:15:09;98537.88;;;-11.42;63.03
75424;BME280;64005;55.160;36.002;2023-02-22T09:17:39;98534.81;;;-11.45;62.51
75424;BME280;64005;55.160;36.002;2023-02-22T09:20:07;98534.19;;;-11.41;61.89
75424;BME280;64005;55.160;36.002;2023-02-22T09:22:37;98525.28;;;-11.35;61.52
75424;BME280;64005;55.160;36.002;2023-02-22T09:25:06;98528.63;;;-11.46;61.71
75424;BME280;64005;55.160;36.002;2023-02-22T09:27:33;98521.78;;;-11.48;61.58
75424;BME280;64005;55.160;36.002;2023-02-22T09:30:01;98537.69;;;-11.40;61.57
75424;BME280;64005;55.160;36.002;2023-02-22T09:32:29;98545.34;;;-11.37;60.50
75424;BME280;64005;55.160;36.002;2023-02-22T09:34:58;98546.56;;;-11.46;60.88
75424;BME280;64005;55.160;36.002;2023-02-22T09:37:26;98539.97;;;-11.44;60.50
75424;BME280;64005;55.160;36.002;2023-02-22T09:39:53;98551.13;;;-11.40;60.19
75424;BME280;64005;55.160;36.002;2023-02-22T09:42:26;98544.91;;;-11.41;59.93
75424;BME280;64005;55.160;36.002;2023-02-22T09:45:00;98542.00;;;-11.19;59.92
75424;BME280;64005;55.160;36.002;2023-02-22T09:47:37;98567.00;;;-11.12;59.14
75424;BME280;64005;55.160;36.002;2023-02-22T09:50:09;98563.47;;;-11.06;59.51
75424;BME280;64005;55.160;36.002;2023-02-22T09:52:52;98549.63;;;-11.10;59.65
75424;BME280;64005;55.160;36.002;2023-02-22T09:55:29;98580.38;;;-10.93;59.42
75424;BME280;64005;55.160;36.002;2023-02-22T09:58:02;98561.81;;;-11.07;58.76
75424;BME280;64005;55.160;36.002;2023-02-22T10:00:32;98553.75;;;-11.07;58.81
75424;BME280;64005;55.160;36.002;2023-02-22T10:03:16;98562.00;;;-10.96;58.45
75424;BME280;64005;55.160;36.002;2023-02-22T10:05:51;98564.06;;;-10.91;58.26
75424;BME280;64005;55.160;36.002;2023-02-22T10:08:23;98559.09;;;-10.88;58.70
75424;BME280;64005;55.160;36.002;2023-02-22T10:11:05;98581.72;;;-10.51;58.52
75424;BME280;64005;55.160;36.002;2023-02-22T10:13:44;98576.38;;;-10.57;58.88
75424;BME280;64005;55.160;36.002;2023-02-22T10:16:21;98570.16;;;-10.51;59.05
75424;BME280;64005;55.160;36.002;2023-02-22T10:19:10;98496.06;;;-10.85;59.38
75424;BME280;64005;55.160;36.002;2023-02-22T10:22:09;98578.09;;;-10.18;58.70
75424;BME280;64005;55.160;36.002;2023-02-22T10:24:50;98577.72;;;-9.97;58.84
75424;BME280;64005;55.160;36.002;2023-02-22T10:27:24;98582.38;;;-10.11;58.48
75424;BME280;64005;55.160;36.002;2023-02-22T10:29:59;98579.75;;;-9.86;58.34
75424;BME280;64005;55.160;36.002;2023-02-22T10:32:36;98586.94;;;-9.80;58.35
75424;BME280;64005;55.160;36.002;2023-02-22T10:35:20;98580.28;;;-9.71;58.29
75424;BME280;64005;55.160;36.002;2023-02-22T10:37:51;98582.47;;;-9.92;57.77
75424;BME280;64005;55.160;36.002;2023-02-22T10:40:22;98549.38;;;-10.24;58.16
75424;BME280;64005;55.160;36.002;2023-02-22T10:43:00;98590.72;;;-9.87;57.86
75424;BME280;64005;55.160;36.002;2023-02-22T10:45:29;98600.16;;;-9.72;57.37
75424;BME280;64005;55.160;36.002;2023-02-22T10:47:59;98593.06;;;-9.97;56.93
75424;BME280;64005;55.160;36.002;2023-02-22T10:50:29;98586.47;;;-10.08;56.64
75424;BME280;64005;55.160;36.002;2023-02-22T10:52:58;98586.16;;;-9.87;56.82
75424;BME280;64005;55.160;36.002;2023-02-22T10:55:25;98597.00;;;-10.00;56.34
75424;BME280;64005;55.160;36.002;2023-02-22T10:57:59;98595.00;;;-9.80;56.34
75424;BME280;64005;55.160;36.002;2023-02-22T11:00:32;98582.50;;;-9.68;56.13
75424;BME280;64005;55.160;36.002;2023-02-22T11:03:04;98601.03;;;-9.78;56.62
75424;BME280;64005;55.160;36.002;2023-02-22T11:05:35;98593.59;;;-9.89;56.29
75424;BME280;64005;55.160;36.002;2023-02-22T11:08:23;98589.13;;;-10.01;56.73
75424;BME280;64005;55.160;36.002;2023-02-22T11:10:53;98569.72;;;-10.10;57.14
75424;BME280;64005;55.160;36.002;2023-02-22T11:13:27;98619.03;;;-9.78;57.04
75424;BME280;64005;55.160;36.002;2023-02-22T11:15:58;98588.84;;;-9.87;57.18
75424;BME280;64005;55.160;36.002;2023-02-22T11:18:29;98598.88;;;-9.69;56.89
75424;BME280;64005;55.160;36.002;2023-02-22T11:21:02;98610.28;;;-9.74;56.63
75424;BME280;64005;55.160;36.002;2023-02-22T11:23:32;98611.28;;;-9.68;56.77
75424;BME280;64005;55.160;36.002;2023-02-22T11:26:06;98592.91;;;-9.71;56.61
75424;BME280;64005;55.160;36.002;2023-02-22T11:28:35;98615.47;;;-9.72;56.66
75424;BME280;64005;55.160;36.002;2023-02-22T11:31:12;98613.94;;;-9.61;56.56
75424;BME280;64005;55.160;36.002;2023-02-22T11:33:50;98618.66;;;-9.57;56.37
75424;BME280;64005;55.160;36.002;2023-02-22T11:36:32;98597.53;;;-9.85;56.83
75424;BME280;64005;55.160;36.002;2023-02-22T11:39:05;98604.13;;;-9.81;56.88
75424;BME280;64005;55.160;36.002;2023-02-22T11:41:36;98615.44;;;-9.66;56.66
75424;BME280;64005;55.160;36.002;2023-02-22T11:44:20;98617.59;;;-9.49;56.78
75424;BME280;64005;55.160;36.002;2023-02-22T11:46:49;98614.44;;;-9.40;56.88
75424;BME280;64005;55.160;36.002;2023-02-22T11:49:22;98592.19;;;-9.60;56.46
75424;BME280;64005;55.160;36.002;2023-02-22T11:51:59;98626.25;;;-9.16;56.52
75424;BME280;64005;55.160;36.002;2023-02-22T11:54:42;98629.00;;;-9.23;56.32
75424;BME280;64005;55.160;36.002;2023-02-22T11:57:19;98641.31;;;-9.33;56.39
75424;BME280;64005;55.160;36.002;2023-02-22T12:00:00;98632.56;;;-9.29;56.64
75424;BME280;64005;55.160;36.002;2023-02-22T12:02:48;98636.19;;;-9.41;56.79
75424;BME280;64005;55.160;36.002;2023-02-22T12:05:34;98609.19;;;-9.59;56.65
75424;BME280;64005;55.160;36.002;2023-02-22T12:08:16;98626.44;;;-9.42;56.82
75424;BME280;64005;55.160;36.002;2023-02-22T12:10:57;98638.88;;;-9.16;56.42
75424;BME280;64005;55.160;36.002;2023-02-22T12:13:41;98632.47;;;-9.15;56.52
75424;BME280;64005;55.160;36.002;2023-02-22T12:16:20;98626.59;;;-9.31;56.65
75424;BME280;64005;55.160;36.002;2023-02-22T12:18:56;98645.91;;;-9.40;56.80
75424;BME280;64005;55.160;36.002;2023-02-22T12:21:32;98652.06;;;-9.33;56.55
75424;BME280;64005;55.160;36.002;2023-02-22T12:24:05;98644.88;;;-9.39;56.81
75424;BME280;64005;55.160;36.002;2023-02-22T12:26:38;98647.56;;;-9.39;56.91
75424;BME280;64005;55.160;36.002;2023-02-22T12:29:12;98664.94;;;-9.35;56.60
75424;BME280;64005;55.160;36.002;2023-02-22T12:31:42;98669.47;;;-9.36;56.66
75424;BME280;64005;55.160;36.002;2023-02-22T12:34:19;98657.38;;;-9.51;56.69
75424;BME280;64005;55.160;36.002;2023-02-22T12:36:55;98674.09;;;-9.43;56.71
75424;BME280;64005;55.160;36.002;2023-02-22T12:39:38;98644.38;;;-9.61;57.03
75424;BME280;64005;55.160;36.002;2023-02-22T12:42:13;98653.97;;;-9.72;57.21
75424;BME280;64005;55.160;36.002;2023-02-22T12:44:45;98670.06;;;-9.58;57.38
75424;BME280;64005;55.160;36.002;2023-02-22T12:47:18;98668.91;;;-9.38;57.13
75424;BME280;64005;55.160;36.002;2023-02-22T12:49:51;98671.06;;;-9.21;56.88
75424;BME280;64005;55.160;36.002;2023-02-22T12:52:36;98671.47;;;-9.18;57.03
75424;BME280;64005;55.160;36.002;2023-02-22T12:55:10;98611.22;;;-9.55;57.30
75424;BME280;64005;55.160;36.002;2023-02-22T12:57:47;98675.72;;;-9.10;57.33
75424;BME280;64005;55.160;36.002;2023-02-22T13:00:38;98664.84;;;-9.22;57.60
75424;BME280;64005;55.160;36.002;2023-02-22T13:03:25;98685.72;;;-9.11;57.39
75424;BME280;64005;55.160;36.002;2023-02-22T13:06:08;98685.97;;;-9.19;57.60
75424;BME280;64005;55.160;36.002;2023-02-22T13:08:45;98634.28;;;-9.66;57.61
75424;BME280;64005;55.160;36.002;2023-02-22T13:11:22;98702.25;;;-9.39;57.83